Latest Weather Observations for Tamworth Airport

IDN60801

Issued at 9:33 pm EDT Monday 22 December 2014 (issued every 30 minutes, with the page automatically refreshed every 10 minutes)

About weather observations | Map of weather stations | Latest weather observations for NSW | Other Formats
Station Details ID: 055325 Name: TAMWORTH AIRPORT AWS Lat: -31.07 Lon: 150.84 Height: 394.9 m
Data from the previous 72 hours. | See also: Recent months at Tamworth Airport
Date/Time
EDT
Temp
°C
App
Temp
°C
Dew
Point
Rel
Hum
%
Delta-T
°C
Wind Press
QNH
hPa
Press
MSL
hPa
Rain
since 9 am
mm
Dir
 
Spd
km/h
Gust
km/h
Spd
kts
Gust
kts
22/09:30pm 25.3 24.5 15.0 53 6.3 ENE 13 17 7 9 1014.8 1012.9 0.4
22/09:00pm 24.5 22.7 15.4 57 5.6 E 19 24 10 13 1014.5 1012.6 0.2
22/08:30pm 26.0 24.5 13.2 45 7.6 SSE 13 17 7 9 1014.9 1013.0 0.0
22/08:00pm 26.9 23.4 12.2 40 8.6 ENE 22 30 12 16 1014.2 1012.3 0.0
22/07:30pm 26.7 22.2 12.7 42 8.3 NE 28 39 15 21 1013.7 1011.7 0.0
22/07:05pm 29.4 24.6 11.5 33 10.5 ENE 28 46 15 25 1013.2 1011.2 0.0
22/07:00pm 29.9 26.7 11.9 33 10.7 ENE 20 32 11 17 1013.2 1011.2 0.0
22/06:30pm 31.1 26.9 11.0 29 11.8 E 24 35 13 19 1012.5 1010.6 0.0
22/06:00pm 31.7 26.9 10.4 27 12.4 E 26 39 14 21 1012.0 1010.1 0.0
22/05:43pm 33.0 29.5 10.9 26 13.1 SSE 20 44 11 24 1011.9 1010.0 0.0
22/05:30pm 33.0 30.7 9.1 23 13.7 S 11 19 6 10 1011.9 1010.0 0.0
22/05:00pm 32.9 31.3 11.4 27 12.8 SSW 11 15 6 8 1012.0 1010.1 0.0
22/04:30pm 33.3 31.8 10.6 25 13.4 WSW 9 17 5 9 1012.3 1010.4 0.0
22/04:00pm 33.6 33.3 11.4 25 13.3 S 4 9 2 5 1012.8 1010.8 0.0
22/03:30pm 33.2 32.6 11.7 27 12.9 NNE 6 15 3 8 1013.3 1011.3 0.0
22/03:00pm 32.7 31.6 11.8 28 12.5 SE 9 20 5 11 1014.0 1012.0 0.0
22/02:30pm 32.4 31.8 10.4 26 12.9 NNE 4 9 2 5 1014.6 1012.7 0.0
22/02:00pm 32.0 31.1 11.2 28 12.3 NNE 7 11 4 6 1015.2 1013.3 0.0
22/01:30pm 31.5 31.2 12.8 32 11.3 S 6 11 3 6 1015.9 1013.9 0.0
22/01:00pm 31.2 31.2 13.5 34 10.8 SW 6 15 3 8 1016.5 1014.6 0.0
22/12:30pm 30.3 30.0 14.4 38 9.8 NNW 9 22 5 12 1017.0 1015.1 0.0
22/12:00pm 29.3 27.9 13.5 38 9.6 N 13 20 7 11 1017.4 1015.5 0.0
22/11:30am 28.2 27.7 13.7 41 8.8 NW 9 17 5 9 1017.6 1015.7 0.0
22/11:00am 28.2 27.3 14.8 44 8.2 NW 13 20 7 11 1017.9 1016.0 0.0
22/10:30am 26.6 25.8 14.0 46 7.6 N 11 20 6 11 1018.0 1016.1 0.0
22/10:00am 26.0 25.4 14.5 49 7.0 N 11 20 6 11 1018.3 1016.3 0.0
22/09:30am 26.0 27.2 14.8 50 6.8 W 2 9 1 5 1018.6 1016.7 0.0
22/09:00am 24.5 25.4 15.1 55 5.7 WSW 4 9 2 5 1018.7 1016.8 0.0
22/08:30am 24.0 25.0 14.4 55 5.8 W 2 9 1 5 1018.5 1016.5 0.0
22/08:00am 23.4 24.4 13.3 53 5.9 CALM 0 0 0 0 1018.3 1016.3 0.0
22/07:30am 22.9 23.5 14.2 58 5.2 ESE 4 7 2 4 1017.8 1015.9 0.0
22/07:00am 20.7 22.6 15.7 73 3.0 CALM 0 0 0 0 1017.4 1015.5 0.0
22/06:30am 18.2 19.6 14.5 79 2.2 CALM 0 4 0 2 1017.1 1015.2 0.0
22/06:00am 17.6 17.7 13.9 79 2.1 ENE 6 13 3 7 1017.1 1015.2 0.0
22/05:30am 17.6 17.7 13.9 79 2.1 SSW 6 9 3 5 1016.9 1015.0 0.0
22/05:00am 18.9 18.6 14.4 75 2.6 SE 9 13 5 7 1016.3 1014.3 0.0
22/03:30am 21.5 20.4 14.4 64 4.2 E 13 15 7 8 1016.1 1014.1 0.0
22/03:00am 21.1 20.1 14.5 66 3.9 ESE 13 15 7 8 1016.2 1014.2 0.0
22/02:30am 21.8 21.1 14.4 63 4.4 ESE 11 15 6 8 1016.2 1014.2 0.0
22/02:00am 22.2 20.3 14.3 61 4.7 E 17 24 9 13 1016.2 1014.2 0.0
22/01:30am 22.5 20.2 14.6 61 4.7 E 20 28 11 15 1016.2 1014.2 0.0
22/01:00am 22.6 21.3 14.7 61 4.7 E 15 19 8 10 1016.6 1014.7 0.0
22/12:30am 22.5 21.8 14.4 60 4.8 ESE 11 19 6 10 1016.7 1014.8 0.0
22/12:00am 23.3 21.0 14.6 58 5.2 E 20 32 11 17 1016.5 1014.6 0.0
 
Date/Time
EDT
Temp
°C
App
Temp
°C
Dew
Point
Rel
Hum
%
Delta-T
°C
Wind Press
QNH
hPa
Press
MSL
hPa
Rain
since 9 am
mm
Dir
 
Spd
km/h
Gust
km/h
Spd
kts
Gust
kts
21/11:30pm 23.3 21.2 14.6 58 5.2 E 19 22 10 12 1016.4 1014.5 0.0
21/11:00pm 23.3 21.6 14.6 58 5.2 SE 17 22 9 12 1016.5 1014.6 0.0
21/10:30pm 23.6 21.9 14.6 57 5.4 ESE 17 26 9 14 1016.4 1014.5 0.0
21/10:00pm 24.2 22.1 14.6 55 5.8 ESE 19 24 10 13 1016.4 1014.5 0.0
21/09:30pm 25.2 22.9 14.0 49 6.7 ESE 19 24 10 13 1016.0 1014.0 0.0
21/09:00pm 25.9 22.5 13.7 47 7.3 E 24 30 13 16 1015.1 1013.2 0.0
21/08:30pm 27.2 23.5 12.8 41 8.6 E 24 35 13 19 1014.5 1012.6 0.0
21/08:00pm 28.1 25.1 12.0 36 9.5 ESE 19 35 10 19 1013.7 1011.7 0.0
21/07:30pm 29.6 29.7 10.2 30 11.2 CALM 0 0 0 0 1013.5 1011.5 0.0
21/07:00pm 30.6 30.0 10.5 29 11.7 SE 4 9 2 5 1013.2 1011.2 0.0
21/06:30pm 30.2 28.6 8.0 25 12.4 SE 6 11 3 6 1013.4 1011.4 0.0
21/06:00pm 32.2 32.2 9.7 25 13.0 CALM 0 0 0 0 1013.5 1011.5 0.0
21/05:30pm 31.7 29.5 9.3 25 12.8 SSW 11 19 6 10 1013.3 1011.3 0.0
21/05:00pm 31.9 30.2 10.0 26 12.7 WNW 9 13 5 7 1013.4 1011.4 0.0
21/04:30pm 32.0 31.5 9.5 25 13.0 NW 2 9 1 5 1013.8 1011.8 0.0
21/04:00pm 31.4 30.5 10.7 28 12.1 ENE 6 9 3 5 1014.2 1012.3 0.0
21/03:30pm 30.0 28.9 10.5 30 11.3 NNW 7 13 4 7 1014.6 1012.7 0.0
21/03:00pm 31.4 30.5 11.2 29 11.9 N 7 17 4 9 1014.9 1013.0 0.0
21/02:30pm 30.2 29.0 10.2 29 11.5 NNE 7 15 4 8 1015.2 1013.3 0.0
21/02:00pm 30.9 29.8 11.8 31 11.3 NNE 9 19 5 10 1015.7 1013.7 0.0
21/01:30pm 30.1 27.8 10.6 30 11.3 NW 13 20 7 11 1016.3 1014.3 0.0
21/01:00pm 29.6 26.6 10.7 31 11.0 NW 17 26 9 14 1016.6 1014.7 0.0
21/12:30pm 28.7 27.3 12.2 36 9.8 NNW 11 20 6 11 1016.9 1015.0 0.0
21/12:00pm 28.1 26.4 12.4 37 9.3 NW 13 20 7 11 1017.1 1015.2 0.0
21/11:30am 26.8 25.2 12.8 42 8.3 NNW 13 24 7 13 1017.5 1015.6 0.0
21/11:00am 27.6 26.2 13.5 41 8.5 NW 13 24 7 13 1017.7 1015.8 0.0
21/10:30am 26.6 25.5 14.4 47 7.4 NNW 13 20 7 11 1017.9 1016.0 0.0
21/10:00am 25.7 24.3 13.5 46 7.3 NNW 13 17 7 9 1018.2 1016.2 0.0
21/09:30am 24.4 23.5 12.7 48 6.9 NNW 9 15 5 8 1018.4 1016.4 0.0
21/09:00am 24.0 24.1 12.6 49 6.6 S 4 7 2 4 1018.4 1016.4 0.0
21/08:30am 23.1 22.5 12.4 51 6.2 ENE 7 11 4 6 1018.3 1016.3 0.0
21/08:00am 22.6 21.6 13.4 56 5.4 SE 11 13 6 7 1017.9 1016.0 0.0
21/07:30am 21.0 19.1 12.9 60 4.7 SE 15 19 8 10 1017.6 1015.7 0.0
21/07:00am 20.0 18.2 13.2 65 3.9 SSE 15 20 8 11 1017.4 1015.5 0.0
21/06:30am 18.4 16.6 13.3 72 2.9 SSE 15 19 8 10 1016.9 1015.0 0.0
21/06:00am 17.8 15.5 13.1 74 2.7 SE 17 19 9 10 1016.5 1014.6 0.0
21/05:30am 17.7 15.4 13.0 74 2.7 SE 17 20 9 11 1016.2 1014.2 0.0
21/05:00am 17.8 15.9 13.1 74 2.7 SE 15 20 8 11 1015.9 1013.9 0.0
21/04:30am 19.0 16.8 13.2 69 3.3 SE 17 20 9 11 1015.8 1013.8 0.0
21/04:00am 19.4 17.3 13.6 69 3.4 ESE 17 20 9 11 1015.8 1013.8 0.0
21/03:30am 17.8 17.0 12.9 73 2.8 SE 9 13 5 7 1015.9 1013.9 0.0
21/03:00am 19.0 17.9 13.2 69 3.3 ESE 11 13 6 7 1016.0 1014.0 0.0
21/02:30am 19.6 17.9 13.5 68 3.5 SE 15 20 8 11 1016.1 1014.1 0.0
21/02:00am 20.2 18.8 13.4 65 4.0 E 13 22 7 12 1016.3 1014.3 0.0
21/01:30am 20.7 17.7 13.6 64 4.2 ESE 22 30 12 16 1016.4 1014.5 0.0
21/01:00am 20.7 17.3 13.6 64 4.2 ESE 24 33 13 18 1016.6 1014.7 0.0
21/12:30am 20.6 17.6 13.6 64 4.1 SE 22 28 12 15 1016.7 1014.8 0.0
21/12:00am 20.5 17.4 13.5 64 4.1 SE 22 28 12 15 1016.7 1014.8 0.0
 
Date/Time
EDT
Temp
°C
App
Temp
°C
Dew
Point
Rel
Hum
%
Delta-T
°C
Wind Press
QNH
hPa
Press
MSL
hPa
Rain
since 9 am
mm
Dir
 
Spd
km/h
Gust
km/h
Spd
kts
Gust
kts
20/11:30pm 21.4 17.6 13.6 61 4.6 SE 26 32 14 17 1016.6 1014.7 0.0
20/11:00pm 22.1 17.6 13.7 59 5.0 ESE 30 39 16 21 1016.4 1014.5 0.0
20/10:30pm 22.5 17.6 13.8 58 5.2 ESE 32 41 17 22 1016.3 1014.3 0.0
20/10:00pm 23.3 18.8 13.8 55 5.6 ESE 30 39 16 21 1015.9 1013.9 0.0
20/09:30pm 23.8 18.9 13.6 52 6.1 SE 32 41 17 22 1015.3 1013.4 0.0
20/09:00pm 24.5 20.1 12.8 48 6.9 SSE 28 37 15 20 1014.5 1012.6 0.0
20/08:47pm 25.1 20.5 12.3 45 7.5 SSE 28 41 15 22 1014.2 1012.3 0.0
20/08:30pm 24.7 21.5 8.6 36 8.8 S 15 20 8 11 1013.9 1011.9 0.0
20/08:00pm 25.6 23.1 8.1 33 9.5 SSE 11 13 6 7 1013.4 1011.4 0.0
20/07:30pm 27.8 25.5 7.6 28 11.0 SSE 9 13 5 7 1013.1 1011.1 0.0
20/07:00pm 29.7 28.2 7.0 24 12.4 SE 4 9 2 5 1012.6 1010.7 0.0
20/06:30pm 30.3 28.2 5.6 21 13.2 SSE 6 17 3 9 1012.3 1010.4 0.0
20/06:00pm 30.4 27.7 5.6 21 13.3 E 9 17 5 9 1012.1 1010.2 0.0
20/05:30pm 30.4 28.0 4.2 19 13.7 N 6 11 3 6 1012.0 1010.1 0.0
20/05:00pm 30.8 28.0 5.3 20 13.6 W 9 15 5 8 1012.1 1010.2 0.0
20/04:30pm 30.6 28.7 5.1 20 13.6 SW 4 13 2 7 1012.2 1010.3 0.0
20/04:00pm 30.4 28.1 5.6 21 13.3 SW 7 26 4 14 1012.6 1010.7 0.0
20/03:30pm 30.0 27.5 6.6 23 12.7 N 9 17 5 9 1013.0 1011.0 0.0
20/03:00pm 29.8 27.5 5.8 22 12.9 E 7 15 4 8 1013.5 1011.5 0.0
20/02:30pm 30.3 27.7 6.2 22 13.0 N 9 17 5 9 1013.8 1011.8 0.0
20/02:00pm 29.6 26.7 6.3 23 12.6 WSW 11 24 6 13 1014.1 1012.2 0.0
20/01:30pm 28.8 25.2 5.0 22 12.5 W 13 20 7 11 1014.6 1012.7 0.0
20/01:00pm 28.6 25.0 6.7 25 11.8 WNW 15 28 8 15 1015.0 1013.1 0.0
20/12:30pm 28.0 25.9 9.8 32 10.3 NW 11 30 6 16 1015.6 1013.6 0.0
20/12:00pm 27.1 25.4 9.9 34 9.7 NNW 9 17 5 9 1016.0 1014.0 0.0
20/11:30am 26.5 23.8 10.2 36 9.3 N 15 41 8 22 1016.1 1014.1 0.0
20/11:00am 25.7 23.4 11.8 42 8.1 WNW 15 24 8 13 1016.3 1014.3 0.0
20/10:30am 25.0 23.2 10.8 41 8.1 NNE 11 20 6 11 1016.3 1014.3 0.0
20/10:00am 24.2 22.1 11.2 44 7.4 NE 13 20 7 11 1016.3 1014.3 0.0
20/09:30am 23.7 23.6 12.0 48 6.8 NNW 4 11 2 6 1016.5 1014.6 0.0
20/09:00am 23.0 21.6 12.3 51 6.2 E 11 17 6 9 1016.5 1014.6 0.0
20/08:30am 21.9 19.9 11.6 52 5.9 ESE 13 20 7 11 1016.5 1014.6 0.0
20/08:00am 21.0 18.8 12.2 57 5.0 SE 15 20 8 11 1016.3 1014.3 0.0
20/07:30am 19.5 16.7 11.5 60 4.5 SE 17 20 9 11 1016.1 1014.1 0.0
20/07:00am 17.4 14.6 11.4 68 3.3 SSE 17 19 9 10 1015.8 1013.8 0.0
20/06:30am 15.6 12.8 11.4 76 2.3 SSE 17 20 9 11 1015.5 1013.5 0.0
20/06:00am 14.5 11.9 10.7 78 2.0 SSE 15 19 8 10 1015.1 1013.2 0.0
20/05:30am 14.6 11.6 10.6 77 2.1 SSE 17 20 9 11 1014.9 1013.0 0.0
20/05:00am 15.4 12.4 10.8 74 2.5 SSE 17 20 9 11 1014.8 1012.9 0.0
20/04:30am 17.2 14.0 11.2 68 3.3 SE 19 24 10 13 1014.6 1012.7 0.0
20/04:00am 16.8 13.6 11.3 70 3.0 SE 19 24 10 13 1014.7 1012.8 0.0
20/03:30am 16.9 14.2 11.6 71 2.9 SSE 17 24 9 13 1014.8 1012.9 0.0
20/03:00am 17.1 14.0 11.6 70 3.1 SSE 19 24 10 13 1014.8 1012.9 0.0
20/02:30am 17.6 14.6 11.8 69 3.2 SE 19 22 10 12 1014.9 1013.0 0.0
20/02:00am 18.2 15.1 11.7 66 3.6 SE 19 24 10 13 1015.0 1013.1 0.0
20/01:30am 18.3 15.3 12.1 67 3.5 SSE 19 22 10 12 1015.0 1013.1 0.0
20/01:00am 18.8 16.2 11.9 64 3.9 SE 17 20 9 11 1015.1 1013.2 0.0
20/12:30am 18.8 15.7 11.6 63 4.0 SE 19 22 10 12 1015.1 1013.2 0.0
20/12:00am 18.7 15.7 11.8 64 3.9 SSE 19 24 10 13 1015.1 1013.2 0.0
 
Date/Time
EDT
Temp
°C
App
Temp
°C
Dew
Point
Rel
Hum
%
Delta-T
°C
Wind Press
QNH
hPa
Press
MSL
hPa
Rain
since 9 am
mm
Dir
 
Spd
km/h
Gust
km/h
Spd
kts
Gust
kts
19/11:30pm 19.1 15.2 8.7 51 5.5 SE 19 24 10 13 1015.1 1013.2 0.0
19/11:00pm 19.1 15.3 1.6 31 8.1 SE 11 13 6 7 1015.0 1013.1 0.0
19/10:30pm 19.1 14.5 1.6 31 8.1 SSW 15 17 8 9 1014.5 1012.6 0.0
19/10:00pm 20.0 15.7 1.0 28 8.7 SSW 13 15 7 8 1014.2 1012.3 0.0

Other Formats:

Comma delimited format used in spreadsheet applications
http://www.bom.gov.au/fwo/IDN60801/IDN60801.95762.axf

JavaScript Object Notation format (JSON) in row-major order
http://www.bom.gov.au/fwo/IDN60801/IDN60801.95762.json